createdAt,value
2022-10-13T05:30:33.533Z,7.20
2022-10-13T05:33:00.679Z,7.20
2022-10-13T05:35:27.375Z,7.10
2022-10-13T05:37:54.030Z,7.10
2022-10-13T05:40:21.341Z,7.10
2022-10-13T05:42:50.122Z,7.10
2022-10-13T05:45:16.694Z,7.00
2022-10-13T05:47:43.298Z,7.00
2022-10-13T05:50:10.071Z,7.00
2022-10-13T05:52:37.834Z,7.00
2022-10-13T05:55:04.924Z,7.00
2022-10-13T05:57:34.730Z,7.00
2022-10-13T06:00:05.943Z,6.90
2022-10-13T06:02:41.387Z,6.90
2022-10-13T06:05:08.634Z,6.80
2022-10-13T06:07:35.259Z,6.90
2022-10-13T06:10:01.947Z,6.90
2022-10-13T06:12:28.641Z,6.90
2022-10-13T06:14:55.563Z,6.90
2022-10-13T06:17:22.156Z,6.90
2022-10-13T06:19:48.736Z,6.90
2022-10-13T06:22:15.585Z,6.90
2022-10-13T06:24:42.179Z,6.90
2022-10-13T06:27:09.775Z,6.90
2022-10-13T06:29:36.400Z,6.80
2022-10-13T06:32:03.240Z,6.70
2022-10-13T06:34:29.842Z,6.70
2022-10-13T06:36:56.449Z,6.70
2022-10-13T06:39:23.140Z,6.60
2022-10-13T06:41:50.101Z,6.60
2022-10-13T06:44:16.676Z,6.60
2022-10-13T06:46:43.273Z,6.60
2022-10-13T06:49:10.311Z,6.70
2022-10-13T06:51:36.998Z,6.70
2022-10-13T06:54:03.629Z,6.70
2022-10-13T06:56:30.286Z,6.80
2022-10-13T06:58:56.856Z,6.80
2022-10-13T07:01:23.482Z,6.90
2022-10-13T07:03:50.773Z,6.90
2022-10-13T07:06:17.593Z,6.90
2022-10-13T07:08:44.369Z,7.00
2022-10-13T07:11:15.929Z,7.00
2022-10-13T07:13:46.275Z,7.10
2022-10-13T07:16:14.059Z,7.20
2022-10-13T07:18:40.651Z,7.30
2022-10-13T07:21:07.266Z,7.30
2022-10-13T07:23:34.053Z,7.40
2022-10-13T07:26:01.690Z,7.40
2022-10-13T07:28:28.419Z,7.60
2022-10-13T07:30:55.062Z,7.60
2022-10-13T07:33:22.736Z,7.70
2022-10-13T07:35:49.337Z,7.80
2022-10-13T07:38:15.906Z,7.90
2022-10-13T07:40:42.515Z,8.00
2022-10-13T07:43:09.109Z,8.20
2022-10-13T07:45:35.785Z,8.30
2022-10-13T07:48:02.373Z,8.30
2022-10-13T07:50:29.053Z,8.30
2022-10-13T07:52:55.764Z,8.40
2022-10-13T07:55:22.353Z,8.50
2022-10-13T07:57:49.106Z,8.60
2022-10-13T08:00:16.020Z,8.70
2022-10-13T08:02:42.592Z,8.80
2022-10-13T08:05:09.382Z,8.80
2022-10-13T08:07:37.997Z,9.00
2022-10-13T08:10:05.069Z,8.80
2022-10-13T08:12:31.674Z,8.90
2022-10-13T08:15:00.503Z,8.90
2022-10-13T08:17:30.100Z,8.90
2022-10-13T08:19:56.712Z,9.20
2022-10-13T08:22:27.938Z,9.10
2022-10-13T08:24:55.782Z,9.10
2022-10-13T08:27:26.614Z,9.00
2022-10-13T08:30:04.783Z,9.20
2022-10-13T08:32:31.479Z,9.40
2022-10-13T08:34:58.070Z,9.40
2022-10-13T08:37:24.980Z,9.40
2022-10-13T08:39:54.741Z,9.30
2022-10-13T08:42:22.453Z,9.60
2022-10-13T08:47:59.981Z,9.70
2022-10-13T08:50:29.899Z,9.50
2022-10-13T08:53:13.170Z,9.60
2022-10-13T08:55:41.281Z,9.70
2022-10-13T08:58:31.225Z,9.80
2022-10-13T09:01:12.398Z,9.90
2022-10-13T09:03:49.813Z,9.80
2022-10-13T09:06:19.648Z,9.90
2022-10-13T09:08:57.214Z,10.00
2022-10-13T09:11:26.452Z,9.90
2022-10-13T09:13:57.576Z,9.90
2022-10-13T09:16:50.973Z,10.10
2022-10-13T09:19:20.988Z,10.00
2022-10-13T09:21:51.418Z,10.10
2022-10-13T09:24:20.260Z,10.20
2022-10-13T09:26:48.089Z,10.40
2022-10-13T09:29:21.416Z,10.40
2022-10-13T09:31:48.086Z,10.60
2022-10-13T09:34:20.834Z,10.30
2022-10-13T09:36:57.228Z,10.50
2022-10-13T09:39:23.849Z,10.60
2022-10-13T09:41:50.578Z,10.70
2022-10-13T09:44:18.129Z,10.80
2022-10-13T09:47:01.219Z,10.80
2022-10-13T09:49:34.934Z,10.90
2022-10-13T09:52:06.192Z,10.90
2022-10-13T09:54:38.551Z,10.80
2022-10-13T09:57:24.648Z,10.80
2022-10-13T09:59:58.897Z,11.00
2022-10-13T10:02:51.115Z,11.00
2022-10-13T10:05:37.721Z,11.10
2022-10-13T10:08:33.601Z,11.20
2022-10-13T10:11:10.422Z,11.40
2022-10-13T10:13:37.019Z,11.50
2022-10-13T10:16:19.946Z,11.70
2022-10-13T10:18:58.441Z,11.50
2022-10-13T10:21:37.294Z,11.60
2022-10-13T10:24:26.928Z,11.50
2022-10-13T10:27:16.122Z,11.40
2022-10-13T10:29:54.064Z,11.20
2022-10-13T10:32:45.211Z,11.40
2022-10-13T10:35:16.721Z,11.50
2022-10-13T10:38:22.168Z,11.60
2022-10-13T10:41:25.719Z,11.30
2022-10-13T10:43:55.402Z,11.50
2022-10-13T10:46:28.603Z,11.30
2022-10-13T10:49:00.537Z,11.30
2022-10-13T10:51:36.034Z,11.40
2022-10-13T10:54:09.446Z,11.70
2022-10-13T10:56:47.504Z,11.70
2022-10-13T10:59:23.437Z,11.70
2022-10-13T11:02:04.836Z,11.50
2022-10-13T11:04:36.074Z,11.60
2022-10-13T11:07:03.832Z,11.80
2022-10-13T11:09:42.668Z,11.60
2022-10-13T11:12:21.880Z,11.70
2022-10-13T11:14:54.872Z,11.60
2022-10-13T11:17:34.480Z,11.60
2022-10-13T11:20:01.068Z,11.50
2022-10-13T11:22:28.454Z,11.60
2022-10-13T11:25:04.126Z,11.50
2022-10-13T11:27:36.537Z,11.70
2022-10-13T11:30:03.354Z,11.90
2022-10-13T11:32:35.665Z,11.80
2022-10-13T11:35:05.441Z,11.70
2022-10-13T11:38:05.896Z,11.60
2022-10-13T11:41:08.026Z,11.60
2022-10-13T11:43:58.341Z,11.80
2022-10-13T11:46:38.372Z,11.70
2022-10-13T11:49:37.481Z,11.90
2022-10-13T11:52:25.535Z,11.70
2022-10-13T11:55:05.088Z,12.00
2022-10-13T11:57:32.852Z,11.80
2022-10-13T11:59:59.482Z,11.80
2022-10-13T12:02:26.875Z,11.70
2022-10-13T12:05:03.725Z,11.90
2022-10-13T12:07:37.199Z,12.00
2022-10-13T12:10:06.325Z,12.20
2022-10-13T12:12:33.038Z,12.20
2022-10-13T12:15:02.635Z,12.20
2022-10-13T12:17:35.785Z,12.00
2022-10-13T12:20:17.418Z,11.90
2022-10-13T12:22:51.006Z,12.00
2022-10-13T12:25:19.586Z,12.10
2022-10-13T12:27:48.878Z,12.20
2022-10-13T12:30:24.507Z,12.00
2022-10-13T12:32:52.512Z,12.20
2022-10-13T12:35:28.393Z,12.10
2022-10-13T12:37:55.464Z,12.10
2022-10-13T12:40:22.136Z,11.80
2022-10-13T12:42:48.938Z,11.90
2022-10-13T12:45:19.995Z,12.50
2022-10-13T12:47:47.734Z,12.60
2022-10-13T12:50:21.280Z,12.40
2022-10-13T12:52:48.153Z,12.50
2022-10-13T12:55:17.448Z,12.40
2022-10-13T12:57:45.489Z,12.30
2022-10-13T13:00:26.631Z,12.40
2022-10-13T13:02:55.029Z,12.60
2022-10-13T13:05:31.406Z,12.50
2022-10-13T13:07:58.058Z,12.70
2022-10-13T13:10:24.671Z,12.60
2022-10-13T13:12:52.074Z,12.40
2022-10-13T13:15:24.823Z,12.40
2022-10-13T13:17:58.146Z,12.40
2022-10-13T13:20:31.646Z,12.60
2022-10-13T13:22:58.277Z,12.40
2022-10-13T13:25:25.023Z,12.60
2022-10-13T13:27:51.841Z,12.50
2022-10-13T13:30:21.001Z,12.60
2022-10-13T13:32:47.673Z,12.30
2022-10-13T13:35:14.348Z,12.20
2022-10-13T13:37:49.464Z,12.80
2022-10-13T13:40:20.851Z,12.70
2022-10-13T13:42:47.464Z,12.90
2022-10-13T13:45:14.990Z,12.90
2022-10-13T13:47:41.664Z,12.70
2022-10-13T13:50:25.765Z,12.70
2022-10-13T13:52:52.392Z,12.60
2022-10-13T13:55:19.154Z,12.60
2022-10-13T13:57:45.867Z,12.40
2022-10-13T14:00:13.501Z,12.50
2022-10-13T14:02:40.399Z,12.80
2022-10-13T14:05:07.612Z,12.60
2022-10-13T14:07:34.411Z,12.50
2022-10-13T14:10:02.208Z,12.70
2022-10-13T14:12:30.641Z,12.60
2022-10-13T14:14:58.413Z,12.90
2022-10-13T14:17:28.210Z,12.60
2022-10-13T14:19:54.981Z,12.60
2022-10-13T14:22:22.358Z,12.70
2022-10-13T14:24:49.294Z,12.50
2022-10-13T14:27:15.910Z,12.70
2022-10-13T14:29:42.492Z,12.60
2022-10-13T14:32:09.115Z,12.70
2022-10-13T14:34:35.696Z,12.40
2022-10-13T14:37:02.370Z,12.70
2022-10-13T14:39:28.998Z,12.80
2022-10-13T14:41:55.620Z,12.70
2022-10-13T14:44:22.200Z,12.80
2022-10-13T14:46:48.850Z,12.80
2022-10-13T14:49:15.443Z,12.70
2022-10-13T14:51:42.131Z,12.80
2022-10-13T14:54:08.704Z,12.60
2022-10-13T14:56:35.590Z,12.70
2022-10-13T14:59:04.323Z,12.70
2022-10-13T15:01:30.992Z,12.60
2022-10-13T15:03:57.599Z,12.60
2022-10-13T15:06:25.110Z,12.40
2022-10-13T15:08:51.782Z,12.60
2022-10-13T15:11:19.976Z,12.50
2022-10-13T15:13:46.564Z,12.40
2022-10-13T15:16:17.570Z,12.40
2022-10-13T15:18:44.144Z,12.60
2022-10-13T15:21:10.999Z,12.50
2022-10-13T15:23:37.629Z,12.50
2022-10-13T15:26:04.267Z,12.50
2022-10-13T15:28:35.443Z,12.30
2022-10-13T15:31:02.126Z,12.20
2022-10-13T15:33:29.716Z,12.20
2022-10-13T15:35:56.569Z,12.20
2022-10-13T15:38:23.374Z,12.30
2022-10-13T15:40:50.030Z,12.30
2022-10-13T15:43:16.737Z,12.30
2022-10-13T15:45:43.381Z,12.20
2022-10-13T15:48:10.654Z,12.30
2022-10-13T15:50:43.445Z,12.30
2022-10-13T15:53:10.124Z,12.10
2022-10-13T15:55:36.817Z,12.20
2022-10-13T15:58:03.416Z,12.10
2022-10-13T16:00:30.025Z,12.10
2022-10-13T16:02:56.667Z,11.90
2022-10-13T16:05:23.338Z,11.80
2022-10-13T16:07:49.944Z,11.80
2022-10-13T16:10:16.655Z,11.80
2022-10-13T16:12:48.333Z,11.80
2022-10-13T16:15:16.404Z,11.80
2022-10-13T16:17:45.477Z,11.70
2022-10-13T16:20:12.285Z,11.70
2022-10-13T16:22:38.937Z,11.70
2022-10-13T16:25:05.962Z,11.60
2022-10-13T16:27:32.552Z,11.70
2022-10-13T16:29:59.512Z,11.50
2022-10-13T16:32:26.116Z,11.60
2022-10-13T16:34:52.734Z,11.50
2022-10-13T16:37:19.819Z,11.50
2022-10-13T16:39:51.500Z,11.30
2022-10-13T16:42:18.671Z,11.20
2022-10-13T16:44:45.272Z,11.20
2022-10-13T16:47:16.003Z,11.00
2022-10-13T16:49:44.724Z,11.10
2022-10-13T16:52:11.355Z,11.10
2022-10-13T16:54:37.968Z,11.00
2022-10-13T16:57:04.709Z,11.00
2022-10-13T16:59:31.602Z,10.90
2022-10-13T17:01:59.207Z,10.90
2022-10-13T17:04:25.839Z,10.70
2022-10-13T17:06:52.462Z,10.80
2022-10-13T17:09:19.092Z,10.80
2022-10-13T17:11:45.743Z,10.90
2022-10-13T17:14:12.344Z,10.80
2022-10-13T17:16:39.021Z,10.80
2022-10-13T17:19:06.673Z,10.80
2022-10-13T17:21:33.361Z,10.80
2022-10-13T17:23:59.999Z,10.80
2022-10-13T17:26:26.605Z,11.00
2022-10-13T17:28:53.542Z,10.80
2022-10-13T17:31:21.570Z,10.90
2022-10-13T17:33:48.261Z,10.80
2022-10-13T17:36:16.678Z,10.70
2022-10-13T17:38:43.698Z,10.70
2022-10-13T17:41:10.830Z,10.70
2022-10-13T17:43:38.298Z,10.70
2022-10-13T17:46:34.514Z,10.70
2022-10-13T17:48:59.990Z,10.80
2022-10-13T17:51:27.708Z,10.70
2022-10-13T17:53:54.419Z,10.70
2022-10-13T17:56:23.077Z,10.70
2022-10-13T17:58:50.093Z,10.60
2022-10-13T18:01:21.452Z,10.60
2022-10-13T18:03:52.682Z,10.60
2022-10-13T18:06:19.880Z,10.60
2022-10-13T18:08:46.521Z,10.60
2022-10-13T18:11:18.177Z,10.50
2022-10-13T18:13:44.929Z,10.60
2022-10-13T18:16:14.754Z,10.50
2022-10-13T18:18:43.611Z,10.60
2022-10-13T18:21:10.560Z,10.50
2022-10-13T18:23:37.235Z,10.70
2022-10-13T18:26:07.981Z,10.60
2022-10-13T18:28:36.063Z,10.50
2022-10-13T18:31:04.586Z,10.50
2022-10-13T18:33:31.169Z,10.40
2022-10-13T18:35:58.146Z,10.20
2022-10-13T18:38:25.478Z,10.50
2022-10-13T18:40:52.745Z,10.40
2022-10-13T18:43:19.347Z,10.40
2022-10-13T18:45:45.969Z,10.40
2022-10-13T18:48:12.571Z,10.30
2022-10-13T18:50:39.242Z,10.30
2022-10-13T18:53:05.815Z,10.20
2022-10-13T18:55:32.422Z,10.20
2022-10-13T18:57:59.066Z,10.20
2022-10-13T19:00:25.714Z,10.10
2022-10-13T19:02:53.283Z,10.20
2022-10-13T19:05:19.877Z,10.30
2022-10-13T19:07:46.473Z,10.30
2022-10-13T19:10:13.083Z,10.20
2022-10-13T19:12:39.808Z,10.30
2022-10-13T19:15:06.808Z,10.30
2022-10-13T19:17:33.449Z,10.20
2022-10-13T19:20:00.050Z,10.20
2022-10-13T19:22:26.651Z,10.30
2022-10-13T19:24:53.243Z,10.30
2022-10-13T19:27:20.146Z,10.30
2022-10-13T19:29:46.875Z,10.30
2022-10-13T19:32:13.478Z,10.30
2022-10-13T19:34:40.096Z,10.30
2022-10-13T19:37:06.796Z,10.30
2022-10-13T19:39:34.263Z,10.30
2022-10-13T19:42:00.918Z,10.20
2022-10-13T19:44:27.549Z,10.20
2022-10-13T19:46:54.970Z,10.30
2022-10-13T19:49:22.360Z,10.30
2022-10-13T19:51:49.543Z,10.30
2022-10-13T19:54:16.346Z,10.40
2022-10-13T19:56:42.953Z,10.40
2022-10-13T19:59:09.543Z,10.40
2022-10-13T20:01:39.939Z,10.40
2022-10-13T20:04:09.743Z,10.40
2022-10-13T20:06:36.691Z,10.40
2022-10-13T20:09:03.802Z,10.40
2022-10-13T20:11:30.436Z,10.40
2022-10-13T20:13:57.134Z,10.50
2022-10-13T20:16:24.310Z,10.60
2022-10-13T20:18:52.744Z,10.60
2022-10-13T20:21:19.349Z,10.50
2022-10-13T20:23:45.928Z,10.60
2022-10-13T20:26:12.746Z,10.40
2022-10-13T20:28:43.409Z,10.40
2022-10-13T20:31:10.950Z,10.60
2022-10-13T20:33:37.592Z,10.50
2022-10-13T20:36:06.025Z,10.50
2022-10-13T20:38:35.315Z,10.60
2022-10-13T20:41:09.690Z,10.50
2022-10-13T20:43:36.999Z,10.50
2022-10-13T20:46:05.034Z,10.70
2022-10-13T20:48:51.058Z,10.60
2022-10-13T20:51:21.522Z,10.60
2022-10-13T20:53:48.467Z,10.50
2022-10-13T20:56:18.101Z,10.60
2022-10-13T20:58:44.999Z,10.50
2022-10-13T21:01:12.040Z,10.60
2022-10-13T21:03:38.989Z,10.50
2022-10-13T21:06:07.089Z,10.50
2022-10-13T21:08:33.842Z,10.60
2022-10-13T21:11:05.270Z,10.60
2022-10-13T21:13:31.899Z,10.80
2022-10-13T21:15:58.506Z,10.60
2022-10-13T21:18:25.109Z,10.60
2022-10-13T21:20:51.732Z,10.70
2022-10-13T21:23:18.381Z,10.60
2022-10-13T21:25:45.079Z,10.70
2022-10-13T21:28:11.662Z,10.70
2022-10-13T21:30:38.344Z,10.70
2022-10-13T21:33:04.928Z,10.70
2022-10-13T21:35:31.526Z,10.80
2022-10-13T21:37:58.112Z,10.70
2022-10-13T21:40:24.709Z,10.60
2022-10-13T21:42:51.365Z,10.70
2022-10-13T21:45:17.965Z,10.70
2022-10-13T21:47:44.620Z,10.80
2022-10-13T21:50:11.282Z,10.80
2022-10-13T21:52:38.247Z,10.70
2022-10-13T21:55:05.346Z,10.70
2022-10-13T21:57:32.015Z,10.70
2022-10-13T21:59:58.646Z,10.80
